createdAt,value
2023-02-23T00:02:35.205Z,100618.53
2023-02-23T00:07:37.338Z,100615.88
2023-02-23T00:12:40.532Z,100613.38
2023-02-23T00:17:42.391Z,100615.88
2023-02-23T00:22:44.360Z,100617.09
2023-02-23T00:27:46.438Z,100615.09
2023-02-23T00:32:50.250Z,100613.31
2023-02-23T00:37:52.242Z,100611.59
2023-02-23T00:42:54.028Z,100601.81
2023-02-23T00:47:56.046Z,100609.94
2023-02-23T00:53:00.011Z,100609.97
2023-02-23T00:58:04.305Z,100614.19
2023-02-23T01:03:06.341Z,100613.38
2023-02-23T01:08:10.357Z,100617.91
2023-02-23T01:13:12.779Z,100615.19
2023-02-23T01:18:19.316Z,100614.19
2023-02-23T01:23:23.266Z,100610.81
2023-02-23T01:28:25.357Z,100627.50
2023-02-23T01:33:27.237Z,100618.69
2023-02-23T01:38:29.036Z,100616.91
2023-02-23T01:43:30.758Z,100614.09
2023-02-23T01:48:39.721Z,100611.59
2023-02-23T01:53:45.092Z,100615.88
2023-02-23T01:58:52.330Z,100613.03
2023-02-23T02:03:58.189Z,100607.84
2023-02-23T02:09:07.006Z,100608.09
2023-02-23T02:14:34.772Z,100615.97
2023-02-23T02:19:37.348Z,100602.00
2023-02-23T02:24:57.778Z,100608.88
2023-02-23T02:30:10.622Z,100610.66
2023-02-23T02:35:53.603Z,100608.00
2023-02-23T02:41:18.509Z,100608.69
2023-02-23T02:46:52.501Z,100597.09
2023-02-23T02:52:01.888Z,100607.00
2023-02-23T02:57:05.132Z,100603.38
2023-02-23T03:02:26.693Z,100596.38
2023-02-23T03:08:32.969Z,100598.00
2023-02-23T03:14:18.019Z,100596.38
2023-02-23T03:19:45.024Z,100599.88
2023-02-23T03:25:11.126Z,100599.81
2023-02-23T03:30:39.825Z,100604.28
2023-02-23T03:36:23.717Z,100612.06
2023-02-23T03:41:47.717Z,100608.00
2023-02-23T03:47:11.138Z,100606.84
2023-02-23T03:52:38.775Z,100607.00
2023-02-23T03:58:02.209Z,100605.25
2023-02-23T04:03:27.215Z,100614.09
2023-02-23T04:08:56.360Z,100616.81
2023-02-23T04:14:02.128Z,100623.84
2023-02-23T04:19:04.156Z,100626.38
2023-02-23T04:24:06.057Z,100630.81
2023-02-23T04:29:07.862Z,100631.75
2023-02-23T04:34:09.691Z,100640.56
2023-02-23T04:39:11.477Z,100634.47
2023-02-23T04:44:13.596Z,100633.38
2023-02-23T04:49:15.774Z,100634.41
2023-02-23T04:54:20.843Z,100642.44
2023-02-23T04:59:22.725Z,100649.31
2023-02-23T05:04:25.192Z,100646.09
2023-02-23T05:09:27.260Z,100652.91
2023-02-23T05:14:28.986Z,100652.19
2023-02-23T05:19:30.902Z,100650.31
2023-02-23T05:24:32.756Z,100657.25
2023-02-23T05:29:34.703Z,100654.72
2023-02-23T05:34:37.084Z,100656.47
2023-02-23T05:39:38.891Z,100652.13
2023-02-23T05:44:40.690Z,100648.63
2023-02-23T05:49:43.059Z,100651.91
2023-02-23T05:54:45.517Z,100655.34
2023-02-23T05:59:47.616Z,100655.41
2023-02-23T06:04:49.714Z,100664.59
2023-02-23T06:09:51.647Z,100656.59
2023-02-23T06:14:53.687Z,100670.69
2023-02-23T06:19:55.653Z,100667.19
2023-02-23T06:24:57.525Z,100676.72
2023-02-23T06:29:59.516Z,100683.91
2023-02-23T06:35:02.068Z,100689.28
2023-02-23T06:40:05.372Z,100694.72
2023-02-23T06:45:07.648Z,100704.38
2023-02-23T06:50:10.362Z,100702.63
2023-02-23T06:55:13.429Z,100708.00
2023-02-23T07:00:18.249Z,100713.13
2023-02-23T07:05:20.597Z,100723.00
2023-02-23T07:10:22.466Z,100726.69
2023-02-23T07:15:24.468Z,100733.47
2023-02-23T07:20:26.734Z,100743.28
2023-02-23T07:25:29.203Z,100751.19
2023-02-23T07:30:31.227Z,100750.47
2023-02-23T07:35:33.370Z,100760.09
2023-02-23T07:40:35.402Z,100755.78
2023-02-23T07:45:37.286Z,100762.81
2023-02-23T07:50:40.953Z,100773.50
2023-02-23T07:55:42.933Z,100771.88
2023-02-23T08:00:44.863Z,100771.88
2023-02-23T08:05:46.798Z,100788.66
2023-02-23T08:10:50.899Z,100793.13
2023-02-23T08:15:52.752Z,100803.72
2023-02-23T08:21:02.249Z,100811.72
2023-02-23T08:26:04.264Z,100810.22
2023-02-23T08:31:10.025Z,100807.41
2023-02-23T08:36:11.833Z,100814.44
2023-02-23T08:41:14.593Z,100818.03
2023-02-23T08:46:18.993Z,100816.38
2023-02-23T08:51:21.325Z,100825.34
2023-02-23T08:56:25.634Z,100833.31
2023-02-23T09:01:27.763Z,100838.63
2023-02-23T09:06:30.182Z,100840.28
2023-02-23T09:11:32.174Z,100841.13
2023-02-23T09:16:34.371Z,100849.88
2023-02-23T09:21:36.620Z,100848.28
2023-02-23T09:26:40.680Z,100850.88
2023-02-23T09:31:44.018Z,100856.19
2023-02-23T09:36:46.310Z,100860.78
2023-02-23T09:42:01.421Z,100872.78
2023-02-23T09:47:24.902Z,100879.03
2023-02-23T09:52:36.722Z,100878.97
2023-02-23T09:57:41.531Z,100894.81
2023-02-23T10:03:17.189Z,100904.91
2023-02-23T10:08:42.337Z,100897.81
2023-02-23T10:13:55.760Z,100907.09
2023-02-23T10:19:20.151Z,100906.03
2023-02-23T10:24:38.546Z,100910.13
2023-02-23T10:29:53.184Z,100909.28
2023-02-23T10:34:57.117Z,100919.66
2023-02-23T10:39:59.207Z,100919.75
2023-02-23T10:45:01.652Z,100912.63
2023-02-23T10:50:04.208Z,100913.47
2023-02-23T10:55:09.272Z,100919.69
2023-02-23T11:00:17.225Z,100916.19
2023-02-23T11:05:57.557Z,100922.50
2023-02-23T11:11:19.320Z,100921.50
2023-02-23T11:16:29.143Z,100919.69
2023-02-23T11:21:38.703Z,100922.22
2023-02-23T11:26:43.500Z,100928.56
2023-02-23T11:31:57.780Z,100917.81
2023-02-23T11:37:06.806Z,100921.25
2023-02-23T11:42:19.459Z,100922.31
2023-02-23T11:47:23.274Z,100909.91
2023-02-23T11:52:26.339Z,100913.28
2023-02-23T11:57:34.280Z,100903.66
2023-02-23T12:02:51.372Z,100906.47
2023-02-23T12:08:15.142Z,100898.28
2023-02-23T12:13:29.254Z,100892.06
2023-02-23T12:18:41.931Z,100885.94
2023-02-23T12:23:50.435Z,100886.00
2023-02-23T12:29:02.821Z,100884.00
2023-02-23T12:34:13.289Z,100883.28
2023-02-23T12:39:24.735Z,100893.97
2023-02-23T12:44:35.873Z,100883.34
2023-02-23T12:49:55.375Z,100883.34
2023-02-23T12:54:57.847Z,100882.22
2023-02-23T13:00:02.312Z,100879.63
2023-02-23T13:05:18.215Z,100876.25
2023-02-23T13:10:29.977Z,100883.06
2023-02-23T13:15:48.986Z,100872.69
2023-02-23T13:21:29.520Z,100880.63
2023-02-23T13:26:54.561Z,100884.94
2023-02-23T13:31:56.788Z,100879.63
2023-02-23T13:37:01.473Z,100882.34
2023-02-23T13:42:10.043Z,100884.22
2023-02-23T13:47:20.599Z,100885.94
2023-02-23T13:52:41.057Z,100878.03
2023-02-23T13:57:43.978Z,100886.03
2023-02-23T14:02:46.564Z,100893.81
2023-02-23T14:07:56.919Z,100890.25
2023-02-23T14:13:26.378Z,100898.47
2023-02-23T14:18:31.469Z,100904.59
2023-02-23T14:23:35.210Z,100909.03
2023-02-23T14:28:39.677Z,100913.59
2023-02-23T14:33:48.672Z,100914.38
2023-02-23T14:38:56.362Z,100914.38
2023-02-23T14:44:28.316Z,100919.03
2023-02-23T14:49:39.678Z,100906.56
2023-02-23T14:54:41.640Z,100911.94
2023-02-23T14:59:44.343Z,100924.19
2023-02-23T15:04:46.867Z,100924.19
2023-02-23T15:09:48.824Z,100925.16
2023-02-23T15:14:50.874Z,100923.41
2023-02-23T15:20:14.323Z,100930.47
2023-02-23T15:25:24.369Z,100922.41
2023-02-23T15:30:32.868Z,100928.50
2023-02-23T15:36:04.039Z,100933.09
2023-02-23T15:41:09.618Z,100929.56
2023-02-23T15:46:24.375Z,100926.75
2023-02-23T15:51:56.771Z,100922.56
2023-02-23T15:57:04.690Z,100926.78
2023-02-23T16:02:23.552Z,100935.63
2023-02-23T16:07:27.961Z,100926.78
2023-02-23T16:12:33.267Z,100921.53
2023-02-23T16:17:47.506Z,100919.69
2023-02-23T16:22:53.793Z,100923.41
2023-02-23T16:28:10.001Z,100931.31
2023-02-23T16:33:20.927Z,100935.66
2023-02-23T16:38:36.094Z,100925.91
2023-02-23T16:43:38.011Z,100933.03
2023-02-23T16:48:40.868Z,100929.28
2023-02-23T16:53:46.125Z,100929.50
2023-02-23T16:58:58.361Z,100926.75
2023-02-23T17:04:00.327Z,100932.78
2023-02-23T17:09:02.185Z,100927.47
2023-02-23T17:14:04.325Z,100932.94
2023-02-23T17:19:07.572Z,100948.03
2023-02-23T17:24:09.735Z,100953.22
2023-02-23T17:29:12.033Z,100965.44
2023-02-23T17:34:14.229Z,100955.25
2023-02-23T17:39:17.079Z,100950.75
2023-02-23T17:44:18.926Z,100955.03
2023-02-23T17:49:20.852Z,100954.97
2023-02-23T17:54:22.726Z,100961.38
2023-02-23T17:59:24.713Z,100966.81
2023-02-23T18:04:28.174Z,100968.53
2023-02-23T18:09:30.005Z,100971.94
2023-02-23T18:14:32.225Z,100976.50
2023-02-23T18:19:34.568Z,100976.28
2023-02-23T18:24:37.964Z,100979.94
2023-02-23T18:29:40.070Z,100971.94
2023-02-23T18:34:42.201Z,100974.69
2023-02-23T18:39:44.382Z,100970.97
2023-02-23T18:44:46.416Z,100975.50
2023-02-23T18:49:48.593Z,100976.25
2023-02-23T18:54:50.712Z,100967.63
2023-02-23T18:59:52.747Z,100966.63
2023-02-23T19:04:54.938Z,100965.59
2023-02-23T19:10:02.425Z,100959.50
2023-02-23T19:15:07.459Z,100954.88
2023-02-23T19:20:16.098Z,100967.22
2023-02-23T19:25:18.261Z,100972.59
2023-02-23T19:30:20.418Z,100966.44
2023-02-23T19:35:23.039Z,100964.59
2023-02-23T19:40:29.519Z,100970.91
2023-02-23T19:45:31.903Z,100963.78
2023-02-23T19:50:36.126Z,100974.53
2023-02-23T19:55:38.492Z,100976.28
2023-02-23T20:00:40.802Z,100978.91
2023-02-23T20:05:43.016Z,100972.78
2023-02-23T20:10:45.647Z,100981.56
2023-02-23T20:15:47.863Z,100982.59
2023-02-23T20:20:49.791Z,100988.84
2023-02-23T20:25:51.846Z,100981.66
2023-02-23T20:30:54.095Z,100989.56
2023-02-23T20:35:56.462Z,100979.88
2023-02-23T20:41:03.669Z,100980.72
2023-02-23T20:46:06.811Z,100979.88
2023-02-23T20:51:13.145Z,100974.56
2023-02-23T20:56:17.644Z,100977.28
2023-02-23T21:01:23.834Z,100984.25
2023-02-23T21:06:26.557Z,100984.22
2023-02-23T21:11:29.858Z,100970.91
2023-02-23T21:16:32.520Z,100977.00
2023-02-23T21:21:44.981Z,100972.59
2023-02-23T21:26:46.994Z,100969.84
2023-02-23T21:31:49.052Z,100966.56
2023-02-23T21:36:51.692Z,100965.50
2023-02-23T21:41:54.083Z,100972.50
2023-02-23T21:46:55.968Z,100966.28
2023-02-23T21:51:58.395Z,100963.63
2023-02-23T21:57:00.468Z,100961.88
2023-02-23T22:02:02.359Z,100956.47
2023-02-23T22:07:04.460Z,100951.84
2023-02-23T22:12:07.899Z,100947.81
2023-02-23T22:17:11.131Z,100930.97
2023-02-23T22:22:13.538Z,100941.75
2023-02-23T22:27:16.789Z,100948.66
2023-02-23T22:32:19.081Z,100958.72
2023-02-23T22:37:31.709Z,100958.47
2023-02-23T22:42:35.548Z,100956.72
2023-02-23T22:47:37.719Z,100960.28
2023-02-23T22:52:39.922Z,100948.66
2023-02-23T22:57:41.779Z,100949.66
2023-02-23T23:02:43.607Z,100943.41
2023-02-23T23:07:48.928Z,100944.13
2023-02-23T23:12:50.965Z,100937.88
2023-02-23T23:17:53.209Z,100930.06
2023-02-23T23:22:57.555Z,100928.28
2023-02-23T23:27:59.353Z,100934.44
2023-02-23T23:33:02.208Z,100937.81
2023-02-23T23:38:06.489Z,100936.28
2023-02-23T23:43:08.378Z,100927.41
2023-02-23T23:48:10.185Z,100929.22
2023-02-23T23:53:11.986Z,100928.31
2023-02-23T23:58:18.581Z,100919.66
